sensor_id;sensor_type;location;lat;lon;timestamp;P1;durP1;ratioP1;P2;durP2;ratioP2
6019;SDS011;3038;51.122;6.840;2022-08-11T00:01:10;5.03;;;4.00;;
6019;SDS011;3038;51.122;6.840;2022-08-11T00:04:12;5.37;;;4.80;;
6019;SDS011;3038;51.122;6.840;2022-08-11T00:06:31;4.27;;;3.87;;
6019;SDS011;3038;51.122;6.840;2022-08-11T00:09:00;5.20;;;4.80;;
6019;SDS011;3038;51.122;6.840;2022-08-11T00:11:37;5.07;;;4.37;;
6019;SDS011;3038;51.122;6.840;2022-08-11T00:14:17;5.27;;;4.77;;
6019;SDS011;3038;51.122;6.840;2022-08-11T00:16:55;7.80;;;4.77;;
6019;SDS011;3038;51.122;6.840;2022-08-11T00:19:28;5.27;;;4.83;;
6019;SDS011;3038;51.122;6.840;2022-08-11T00:22:02;5.20;;;4.43;;
6019;SDS011;3038;51.122;6.840;2022-08-11T00:24:34;6.00;;;4.67;;
6019;SDS011;3038;51.122;6.840;2022-08-11T00:27:01;6.20;;;4.47;;
6019;SDS011;3038;51.122;6.840;2022-08-11T00:29:28;4.70;;;4.30;;
6019;SDS011;3038;51.122;6.840;2022-08-11T00:31:55;5.60;;;5.10;;
6019;SDS011;3038;51.122;6.840;2022-08-11T00:34:29;5.77;;;5.10;;
6019;SDS011;3038;51.122;6.840;2022-08-11T00:37:00;5.30;;;4.80;;
6019;SDS011;3038;51.122;6.840;2022-08-11T00:39:30;6.87;;;5.20;;
6019;SDS011;3038;51.122;6.840;2022-08-11T00:44:47;5.00;;;4.60;;
6019;SDS011;3038;51.122;6.840;2022-08-11T00:50:13;5.47;;;4.97;;
6019;SDS011;3038;51.122;6.840;2022-08-11T00:59:32;4.80;;;4.30;;
6019;SDS011;3038;51.122;6.840;2022-08-11T01:05:06;6.43;;;5.93;;
6019;SDS011;3038;51.122;6.840;2022-08-11T01:14:34;5.67;;;5.00;;
6019;SDS011;3038;51.122;6.840;2022-08-11T01:29:14;6.90;;;4.80;;
6019;SDS011;3038;51.122;6.840;2022-08-11T01:37:59;5.40;;;5.00;;
6019;SDS011;3038;51.122;6.840;2022-08-11T01:46:44;5.27;;;4.87;;
6019;SDS011;3038;51.122;6.840;2022-08-11T01:52:00;5.30;;;4.90;;
6019;SDS011;3038;51.122;6.840;2022-08-11T01:54:40;5.17;;;4.70;;
6019;SDS011;3038;51.122;6.840;2022-08-11T01:57:14;5.47;;;4.83;;
6019;SDS011;3038;51.122;6.840;2022-08-11T02:00:25;6.20;;;5.43;;
6019;SDS011;3038;51.122;6.840;2022-08-11T02:02:52;5.20;;;4.80;;
6019;SDS011;3038;51.122;6.840;2022-08-11T02:11:32;5.90;;;5.40;;
6019;SDS011;3038;51.122;6.840;2022-08-11T02:14:15;5.70;;;5.30;;
6019;SDS011;3038;51.122;6.840;2022-08-11T02:20:03;6.30;;;5.80;;
6019;SDS011;3038;51.122;6.840;2022-08-11T02:23:09;5.53;;;5.13;;
6019;SDS011;3038;51.122;6.840;2022-08-11T02:31:51;7.87;;;6.03;;
6019;SDS011;3038;51.122;6.840;2022-08-11T02:45:18;7.93;;;6.20;;
6019;SDS011;3038;51.122;6.840;2022-08-11T02:56:40;6.37;;;5.40;;
6019;SDS011;3038;51.122;6.840;2022-08-11T03:02:19;6.80;;;6.20;;
6019;SDS011;3038;51.122;6.840;2022-08-11T03:07:47;6.97;;;6.10;;
6019;SDS011;3038;51.122;6.840;2022-08-11T03:10:40;6.40;;;5.90;;
6019;SDS011;3038;51.122;6.840;2022-08-11T03:13:33;5.70;;;5.20;;
6019;SDS011;3038;51.122;6.840;2022-08-11T03:16:26;7.13;;;6.53;;
6019;SDS011;3038;51.122;6.840;2022-08-11T03:47:24;7.87;;;7.10;;
6019;SDS011;3038;51.122;6.840;2022-08-11T03:53:07;8.20;;;7.20;;
6019;SDS011;3038;51.122;6.840;2022-08-11T03:58:56;6.97;;;6.33;;
6019;SDS011;3038;51.122;6.840;2022-08-11T04:14:41;14.13;;;7.33;;
6019;SDS011;3038;51.122;6.840;2022-08-11T04:17:43;8.50;;;7.73;;
6019;SDS011;3038;51.122;6.840;2022-08-11T04:29:25;9.27;;;8.40;;
6019;SDS011;3038;51.122;6.840;2022-08-11T04:41:10;11.63;;;8.57;;
6019;SDS011;3038;51.122;6.840;2022-08-11T05:01:26;10.50;;;8.80;;
6019;SDS011;3038;51.122;6.840;2022-08-11T05:09:45;8.70;;;7.90;;
6019;SDS011;3038;51.122;6.840;2022-08-11T05:12:27;9.90;;;8.97;;
6019;SDS011;3038;51.122;6.840;2022-08-11T05:15:00;9.20;;;8.30;;
6019;SDS011;3038;51.122;6.840;2022-08-11T05:20:42;8.73;;;7.87;;
6019;SDS011;3038;51.122;6.840;2022-08-11T05:23:34;9.07;;;8.27;;
6019;SDS011;3038;51.122;6.840;2022-08-11T05:26:23;9.90;;;8.40;;
6019;SDS011;3038;51.122;6.840;2022-08-11T05:29:38;8.77;;;7.90;;
6019;SDS011;3038;51.122;6.840;2022-08-11T05:32:37;18.53;;;10.03;;
6019;SDS011;3038;51.122;6.840;2022-08-11T05:35:24;13.60;;;7.50;;
6019;SDS011;3038;51.122;6.840;2022-08-11T05:37:54;14.13;;;8.30;;
6019;SDS011;3038;51.122;6.840;2022-08-11T05:40:45;8.53;;;7.73;;
6019;SDS011;3038;51.122;6.840;2022-08-11T05:43:34;9.30;;;8.20;;
6019;SDS011;3038;51.122;6.840;2022-08-11T05:46:25;9.67;;;7.80;;
6019;SDS011;3038;51.122;6.840;2022-08-11T05:49:12;8.50;;;7.80;;
6019;SDS011;3038;51.122;6.840;2022-08-11T05:51:57;8.47;;;7.87;;
6019;SDS011;3038;51.122;6.840;2022-08-11T05:54:42;9.27;;;8.57;;
6019;SDS011;3038;51.122;6.840;2022-08-11T05:57:28;8.87;;;8.07;;
6019;SDS011;3038;51.122;6.840;2022-08-11T06:00:01;8.97;;;7.93;;
6019;SDS011;3038;51.122;6.840;2022-08-11T06:02:38;10.77;;;8.50;;
6019;SDS011;3038;51.122;6.840;2022-08-11T06:05:12;9.20;;;8.40;;
6019;SDS011;3038;51.122;6.840;2022-08-11T06:07:40;10.57;;;9.17;;
6019;SDS011;3038;51.122;6.840;2022-08-11T06:10:07;9.53;;;8.53;;
6019;SDS011;3038;51.122;6.840;2022-08-11T06:12:34;10.50;;;9.50;;
6019;SDS011;3038;51.122;6.840;2022-08-11T06:15:08;10.10;;;7.83;;
6019;SDS011;3038;51.122;6.840;2022-08-11T06:17:41;9.87;;;8.87;;
6019;SDS011;3038;51.122;6.840;2022-08-11T06:20:11;9.50;;;8.80;;
6019;SDS011;3038;51.122;6.840;2022-08-11T06:22:40;21.80;;;9.30;;
6019;SDS011;3038;51.122;6.840;2022-08-11T06:25:09;10.03;;;9.13;;
6019;SDS011;3038;51.122;6.840;2022-08-11T06:27:36;10.33;;;8.87;;
6019;SDS011;3038;51.122;6.840;2022-08-11T06:30:04;12.87;;;8.30;;
6019;SDS011;3038;51.122;6.840;2022-08-11T06:32:40;8.80;;;8.00;;
6019;SDS011;3038;51.122;6.840;2022-08-11T06:41:00;8.63;;;7.80;;
6019;SDS011;3038;51.122;6.840;2022-08-11T06:43:52;8.57;;;7.80;;
6019;SDS011;3038;51.122;6.840;2022-08-11T06:46:29;8.80;;;7.40;;
6019;SDS011;3038;51.122;6.840;2022-08-11T06:49:03;10.03;;;8.10;;
6019;SDS011;3038;51.122;6.840;2022-08-11T06:51:30;9.70;;;7.53;;
6019;SDS011;3038;51.122;6.840;2022-08-11T06:54:04;10.10;;;7.07;;
6019;SDS011;3038;51.122;6.840;2022-08-11T06:56:35;7.60;;;6.80;;
6019;SDS011;3038;51.122;6.840;2022-08-11T06:59:21;8.93;;;7.03;;
6019;SDS011;3038;51.122;6.840;2022-08-11T07:04:39;7.53;;;6.80;;
6019;SDS011;3038;51.122;6.840;2022-08-11T07:13:23;7.93;;;6.73;;
6019;SDS011;3038;51.122;6.840;2022-08-11T07:16:10;16.80;;;7.70;;
6019;SDS011;3038;51.122;6.840;2022-08-11T07:18:47;7.30;;;6.60;;
6019;SDS011;3038;51.122;6.840;2022-08-11T07:21:33;11.20;;;6.47;;
6019;SDS011;3038;51.122;6.840;2022-08-11T07:24:24;8.23;;;6.23;;
6019;SDS011;3038;51.122;6.840;2022-08-11T07:27:16;6.70;;;6.17;;
6019;SDS011;3038;51.122;6.840;2022-08-11T07:30:03;7.03;;;6.47;;
6019;SDS011;3038;51.122;6.840;2022-08-11T07:32:33;6.13;;;5.57;;
6019;SDS011;3038;51.122;6.840;2022-08-11T07:35:07;7.67;;;5.67;;
6019;SDS011;3038;51.122;6.840;2022-08-11T07:37:40;7.47;;;6.97;;
6019;SDS011;3038;51.122;6.840;2022-08-11T07:40:11;7.27;;;6.63;;
6019;SDS011;3038;51.122;6.840;2022-08-11T07:42:37;6.60;;;6.10;;
6019;SDS011;3038;51.122;6.840;2022-08-11T07:45:04;9.50;;;6.53;;
6019;SDS011;3038;51.122;6.840;2022-08-11T07:47:50;7.13;;;6.37;;
6019;SDS011;3038;51.122;6.840;2022-08-11T07:50:41;7.40;;;6.20;;
6019;SDS011;3038;51.122;6.840;2022-08-11T07:53:27;7.80;;;6.43;;
6019;SDS011;3038;51.122;6.840;2022-08-11T07:55:55;7.10;;;6.40;;
6019;SDS011;3038;51.122;6.840;2022-08-11T07:58:22;6.93;;;6.03;;
6019;SDS011;3038;51.122;6.840;2022-08-11T08:01:06;8.63;;;7.00;;
6019;SDS011;3038;51.122;6.840;2022-08-11T08:03:51;7.90;;;6.23;;
6019;SDS011;3038;51.122;6.840;2022-08-11T08:06:36;7.60;;;7.10;;
6019;SDS011;3038;51.122;6.840;2022-08-11T08:09:21;6.67;;;6.17;;
6019;SDS011;3038;51.122;6.840;2022-08-11T08:12:07;7.27;;;6.60;;
6019;SDS011;3038;51.122;6.840;2022-08-11T08:14:52;10.00;;;7.53;;
6019;SDS011;3038;51.122;6.840;2022-08-11T08:17:39;8.93;;;7.30;;
6019;SDS011;3038;51.122;6.840;2022-08-11T08:20:26;7.90;;;7.30;;
6019;SDS011;3038;51.122;6.840;2022-08-11T08:22:54;6.50;;;6.00;;
6019;SDS011;3038;51.122;6.840;2022-08-11T08:25:23;6.90;;;6.30;;
6019;SDS011;3038;51.122;6.840;2022-08-11T08:27:57;7.03;;;6.43;;
6019;SDS011;3038;51.122;6.840;2022-08-11T08:30:24;7.13;;;6.40;;
6019;SDS011;3038;51.122;6.840;2022-08-11T08:33:10;7.40;;;6.80;;
6019;SDS011;3038;51.122;6.840;2022-08-11T08:35:37;6.60;;;6.10;;
6019;SDS011;3038;51.122;6.840;2022-08-11T08:38:05;6.50;;;5.93;;
6019;SDS011;3038;51.122;6.840;2022-08-11T08:40:31;7.97;;;5.70;;
6019;SDS011;3038;51.122;6.840;2022-08-11T08:42:57;6.83;;;6.33;;
6019;SDS011;3038;51.122;6.840;2022-08-11T08:45:27;6.33;;;5.83;;
6019;SDS011;3038;51.122;6.840;2022-08-11T08:47:57;7.73;;;7.03;;
6019;SDS011;3038;51.122;6.840;2022-08-11T08:50:26;6.70;;;6.00;;
6019;SDS011;3038;51.122;6.840;2022-08-11T08:53:20;6.27;;;5.67;;
6019;SDS011;3038;51.122;6.840;2022-08-11T08:55:48;7.83;;;7.13;;
6019;SDS011;3038;51.122;6.840;2022-08-11T08:58:15;6.40;;;5.80;;
6019;SDS011;3038;51.122;6.840;2022-08-11T09:00:44;6.47;;;6.07;;
6019;SDS011;3038;51.122;6.840;2022-08-11T09:03:11;6.97;;;6.37;;
6019;SDS011;3038;51.122;6.840;2022-08-11T09:05:38;7.10;;;6.40;;
6019;SDS011;3038;51.122;6.840;2022-08-11T09:08:05;7.60;;;6.43;;
6019;SDS011;3038;51.122;6.840;2022-08-11T09:10:32;6.20;;;5.67;;
6019;SDS011;3038;51.122;6.840;2022-08-11T09:12:58;6.50;;;6.00;;
6019;SDS011;3038;51.122;6.840;2022-08-11T09:15:24;8.80;;;6.50;;
6019;SDS011;3038;51.122;6.840;2022-08-11T09:17:51;6.60;;;6.00;;
6019;SDS011;3038;51.122;6.840;2022-08-11T09:20:27;5.87;;;5.47;;
6019;SDS011;3038;51.122;6.840;2022-08-11T09:22:58;6.57;;;5.93;;
6019;SDS011;3038;51.122;6.840;2022-08-11T09:25:49;6.87;;;6.23;;
6019;SDS011;3038;51.122;6.840;2022-08-11T09:28:36;6.27;;;5.77;;
6019;SDS011;3038;51.122;6.840;2022-08-11T09:31:02;6.60;;;5.80;;
6019;SDS011;3038;51.122;6.840;2022-08-11T09:33:29;7.50;;;6.77;;
6019;SDS011;3038;51.122;6.840;2022-08-11T09:35:56;6.20;;;5.70;;
6019;SDS011;3038;51.122;6.840;2022-08-11T09:38:44;6.37;;;5.87;;
6019;SDS011;3038;51.122;6.840;2022-08-11T09:41:29;6.37;;;5.77;;
6019;SDS011;3038;51.122;6.840;2022-08-11T09:43:57;6.50;;;5.93;;
6019;SDS011;3038;51.122;6.840;2022-08-11T09:46:43;6.50;;;6.00;;
6019;SDS011;3038;51.122;6.840;2022-08-11T09:49:09;5.77;;;5.37;;
6019;SDS011;3038;51.122;6.840;2022-08-11T09:51:34;7.20;;;5.87;;
6019;SDS011;3038;51.122;6.840;2022-08-11T09:54:01;6.37;;;5.87;;
6019;SDS011;3038;51.122;6.840;2022-08-11T09:56:31;6.77;;;6.10;;
6019;SDS011;3038;51.122;6.840;2022-08-11T09:59:19;7.43;;;6.70;;
6019;SDS011;3038;51.122;6.840;2022-08-11T10:01:47;5.93;;;5.43;;
6019;SDS011;3038;51.122;6.840;2022-08-11T10:04:49;7.50;;;5.17;;
6019;SDS011;3038;51.122;6.840;2022-08-11T10:07:09;6.80;;;5.53;;
6019;SDS011;3038;51.122;6.840;2022-08-11T10:12:16;6.07;;;5.57;;
6019;SDS011;3038;51.122;6.840;2022-08-11T10:14:49;6.67;;;6.17;;
6019;SDS011;3038;51.122;6.840;2022-08-11T10:17:38;6.77;;;6.27;;
6019;SDS011;3038;51.122;6.840;2022-08-11T10:20:27;5.90;;;5.40;;
6019;SDS011;3038;51.122;6.840;2022-08-11T10:22:56;6.87;;;5.93;;
6019;SDS011;3038;51.122;6.840;2022-08-11T10:25:42;5.60;;;5.20;;
6019;SDS011;3038;51.122;6.840;2022-08-11T10:28:26;7.83;;;6.00;;
6019;SDS011;3038;51.122;6.840;2022-08-11T10:30:53;7.33;;;5.77;;
6019;SDS011;3038;51.122;6.840;2022-08-11T10:33:37;6.03;;;5.70;;
6019;SDS011;3038;51.122;6.840;2022-08-11T10:36:23;7.43;;;6.50;;
6019;SDS011;3038;51.122;6.840;2022-08-11T10:38:53;5.30;;;4.90;;
6019;SDS011;3038;51.122;6.840;2022-08-11T10:41:19;6.10;;;5.70;;
6019;SDS011;3038;51.122;6.840;2022-08-11T10:44:05;7.50;;;5.20;;
6019;SDS011;3038;51.122;6.840;2022-08-11T10:46:33;5.97;;;5.43;;
6019;SDS011;3038;51.122;6.840;2022-08-11T10:49:18;6.30;;;5.90;;
6019;SDS011;3038;51.122;6.840;2022-08-11T10:51:45;5.10;;;4.70;;
6019;SDS011;3038;51.122;6.840;2022-08-11T10:54:31;5.00;;;4.60;;
6019;SDS011;3038;51.122;6.840;2022-08-11T10:57:16;7.80;;;5.73;;
6019;SDS011;3038;51.122;6.840;2022-08-11T11:00:01;6.00;;;5.10;;
6019;SDS011;3038;51.122;6.840;2022-08-11T11:02:30;6.23;;;5.47;;
6019;SDS011;3038;51.122;6.840;2022-08-11T11:07:25;5.60;;;5.20;;
6019;SDS011;3038;51.122;6.840;2022-08-11T11:10:02;5.57;;;5.27;;
6019;SDS011;3038;51.122;6.840;2022-08-11T11:12:34;6.28;;;5.80;;
6019;SDS011;3038;51.122;6.840;2022-08-11T11:15:30;5.00;;;4.50;;
6019;SDS011;3038;51.122;6.840;2022-08-11T11:18:24;5.60;;;4.32;;
6019;SDS011;3038;51.122;6.840;2022-08-11T11:20:58;5.65;;;5.28;;
6019;SDS011;3038;51.122;6.840;2022-08-11T11:37:15;5.13;;;4.43;;
6019;SDS011;3038;51.122;6.840;2022-08-11T11:39:41;5.47;;;5.00;;
6019;SDS011;3038;51.122;6.840;2022-08-11T11:42:08;5.47;;;4.90;;
6019;SDS011;3038;51.122;6.840;2022-08-11T11:44:38;4.53;;;4.32;;
6019;SDS011;3038;51.122;6.840;2022-08-11T11:47:06;4.78;;;4.50;;
6019;SDS011;3038;51.122;6.840;2022-08-11T11:49:32;5.07;;;4.70;;
6019;SDS011;3038;51.122;6.840;2022-08-11T11:52:03;5.55;;;5.00;;
6019;SDS011;3038;51.122;6.840;2022-08-11T11:54:32;5.40;;;4.90;;
6019;SDS011;3038;51.122;6.840;2022-08-11T11:57:00;5.05;;;4.75;;
6019;SDS011;3038;51.122;6.840;2022-08-11T11:59:50;5.15;;;4.82;;
6019;SDS011;3038;51.122;6.840;2022-08-11T12:02:35;5.00;;;4.70;;
6019;SDS011;3038;51.122;6.840;2022-08-11T12:05:01;5.25;;;4.80;;
6019;SDS011;3038;51.122;6.840;2022-08-11T12:07:28;5.22;;;4.53;;
6019;SDS011;3038;51.122;6.840;2022-08-11T12:10:14;4.85;;;4.07;;
6019;SDS011;3038;51.122;6.840;2022-08-11T12:12:41;4.90;;;4.60;;
6019;SDS011;3038;51.122;6.840;2022-08-11T12:15:25;4.95;;;4.65;;
6019;SDS011;3038;51.122;6.840;2022-08-11T12:17:51;7.75;;;5.20;;
6019;SDS011;3038;51.122;6.840;2022-08-11T12:20:16;4.70;;;4.40;;
6019;SDS011;3038;51.122;6.840;2022-08-11T12:22:45;5.35;;;4.82;;
6019;SDS011;3038;51.122;6.840;2022-08-11T12:25:30;4.97;;;4.57;;
6019;SDS011;3038;51.122;6.840;2022-08-11T12:28:15;6.95;;;5.03;;
6019;SDS011;3038;51.122;6.840;2022-08-11T12:30:41;5.38;;;4.97;;
6019;SDS011;3038;51.122;6.840;2022-08-11T12:33:08;5.18;;;4.88;;
6019;SDS011;3038;51.122;6.840;2022-08-11T12:35:34;4.72;;;4.53;;
6019;SDS011;3038;51.122;6.840;2022-08-11T12:38:00;4.68;;;4.38;;
6019;SDS011;3038;51.122;6.840;2022-08-11T12:40:27;5.38;;;5.00;;
6019;SDS011;3038;51.122;6.840;2022-08-11T12:43:13;4.53;;;4.18;;
6019;SDS011;3038;51.122;6.840;2022-08-11T12:45:59;5.78;;;4.57;;
6019;SDS011;3038;51.122;6.840;2022-08-11T12:48:32;4.95;;;4.65;;
6019;SDS011;3038;51.122;6.840;2022-08-11T12:51:21;5.00;;;4.68;;
6019;SDS011;3038;51.122;6.840;2022-08-11T12:54:08;5.82;;;5.00;;
6019;SDS011;3038;51.122;6.840;2022-08-11T12:56:59;5.53;;;5.15;;
6019;SDS011;3038;51.122;6.840;2022-08-11T12:59:47;4.80;;;4.50;;
6019;SDS011;3038;51.122;6.840;2022-08-11T13:02:32;5.25;;;4.78;;
6019;SDS011;3038;51.122;6.840;2022-08-11T13:05:17;4.57;;;4.22;;
6019;SDS011;3038;51.122;6.840;2022-08-11T13:07:44;6.22;;;4.43;;
6019;SDS011;3038;51.122;6.840;2022-08-11T13:10:12;4.60;;;4.30;;
6019;SDS011;3038;51.122;6.840;2022-08-11T13:13:00;5.60;;;5.20;;
6019;SDS011;3038;51.122;6.840;2022-08-11T13:15:27;5.75;;;5.45;;
6019;SDS011;3038;51.122;6.840;2022-08-11T13:17:53;5.60;;;4.80;;
6019;SDS011;3038;51.122;6.840;2022-08-11T13:20:22;6.03;;;4.93;;
6019;SDS011;3038;51.122;6.840;2022-08-11T13:22:52;5.22;;;4.93;;
6019;SDS011;3038;51.122;6.840;2022-08-11T13:25:20;5.03;;;4.68;;
6019;SDS011;3038;51.122;6.840;2022-08-11T13:27:48;5.10;;;4.80;;
6019;SDS011;3038;51.122;6.840;2022-08-11T13:30:14;4.90;;;4.50;;
6019;SDS011;3038;51.122;6.840;2022-08-11T13:33:00;5.18;;;4.88;;
6019;SDS011;3038;51.122;6.840;2022-08-11T13:35:30;7.38;;;5.63;;
6019;SDS011;3038;51.122;6.840;2022-08-11T13:37:57;6.03;;;5.43;;
6019;SDS011;3038;51.122;6.840;2022-08-11T13:40:26;5.25;;;4.90;;
6019;SDS011;3038;51.122;6.840;2022-08-11T13:42:54;5.82;;;5.28;;
6019;SDS011;3038;51.122;6.840;2022-08-11T13:45:22;5.05;;;4.70;;
6019;SDS011;3038;51.122;6.840;2022-08-11T13:47:49;4.68;;;4.38;;
6019;SDS011;3038;51.122;6.840;2022-08-11T13:50:17;5.00;;;4.80;;
6019;SDS011;3038;51.122;6.840;2022-08-11T13:52:43;5.07;;;4.78;;
6019;SDS011;3038;51.122;6.840;2022-08-11T13:55:11;6.32;;;5.85;;
6019;SDS011;3038;51.122;6.840;2022-08-11T13:57:50;6.55;;;5.97;;
6019;SDS011;3038;51.122;6.840;2022-08-11T14:00:16;6.35;;;5.93;;
6019;SDS011;3038;51.122;6.840;2022-08-11T14:02:42;6.32;;;5.82;;
6019;SDS011;3038;51.122;6.840;2022-08-11T14:05:11;5.90;;;5.50;;
6019;SDS011;3038;51.122;6.840;2022-08-11T14:07:49;6.13;;;5.47;;
6019;SDS011;3038;51.122;6.840;2022-08-11T14:10:18;5.93;;;5.47;;
6019;SDS011;3038;51.122;6.840;2022-08-11T14:12:49;5.50;;;5.10;;
6019;SDS011;3038;51.122;6.840;2022-08-11T14:15:39;6.25;;;5.65;;
6019;SDS011;3038;51.122;6.840;2022-08-11T14:18:07;5.88;;;5.47;;
6019;SDS011;3038;51.122;6.840;2022-08-11T14:20:38;5.25;;;4.90;;
6019;SDS011;3038;51.122;6.840;2022-08-11T14:23:31;5.78;;;5.38;;
6019;SDS011;3038;51.122;6.840;2022-08-11T14:26:02;5.37;;;4.87;;
6019;SDS011;3038;51.122;6.840;2022-08-11T14:28:47;6.20;;;5.80;;
6019;SDS011;3038;51.122;6.840;2022-08-11T14:31:17;6.33;;;5.77;;
6019;SDS011;3038;51.122;6.840;2022-08-11T14:33:43;6.13;;;5.63;;
6019;SDS011;3038;51.122;6.840;2022-08-11T14:36:10;5.80;;;5.50;;
6019;SDS011;3038;51.122;6.840;2022-08-11T14:38:36;6.90;;;6.50;;
6019;SDS011;3038;51.122;6.840;2022-08-11T14:41:04;7.10;;;6.50;;
6019;SDS011;3038;51.122;6.840;2022-08-11T14:43:50;6.47;;;6.03;;
6019;SDS011;3038;51.122;6.840;2022-08-11T14:46:36;6.80;;;6.40;;
6019;SDS011;3038;51.122;6.840;2022-08-11T14:49:22;6.93;;;6.40;;
6019;SDS011;3038;51.122;6.840;2022-08-11T14:51:48;6.40;;;5.90;;
6019;SDS011;3038;51.122;6.840;2022-08-11T14:54:16;7.50;;;7.00;;
6019;SDS011;3038;51.122;6.840;2022-08-11T14:57:00;9.97;;;9.07;;
6019;SDS011;3038;51.122;6.840;2022-08-11T14:59:27;6.07;;;5.60;;
6019;SDS011;3038;51.122;6.840;2022-08-11T15:01:53;7.03;;;6.60;;
6019;SDS011;3038;51.122;6.840;2022-08-11T15:04:37;6.90;;;6.40;;
6019;SDS011;3038;51.122;6.840;2022-08-11T15:07:03;7.60;;;7.00;;
6019;SDS011;3038;51.122;6.840;2022-08-11T15:09:29;7.37;;;6.87;;
6019;SDS011;3038;51.122;6.840;2022-08-11T15:11:55;7.43;;;6.37;;
6019;SDS011;3038;51.122;6.840;2022-08-11T15:14:41;6.60;;;6.10;;
6019;SDS011;3038;51.122;6.840;2022-08-11T15:17:27;7.27;;;6.67;;
6019;SDS011;3038;51.122;6.840;2022-08-11T15:19:57;6.07;;;5.73;;
6019;SDS011;3038;51.122;6.840;2022-08-11T15:22:44;7.07;;;6.57;;
6019;SDS011;3038;51.122;6.840;2022-08-11T15:25:42;7.27;;;6.03;;
6019;SDS011;3038;51.122;6.840;2022-08-11T15:28:12;7.47;;;6.77;;
6019;SDS011;3038;51.122;6.840;2022-08-11T15:31:01;7.17;;;6.57;;
6019;SDS011;3038;51.122;6.840;2022-08-11T15:33:51;16.47;;;8.97;;
6019;SDS011;3038;51.122;6.840;2022-08-11T15:36:38;7.57;;;6.97;;
6019;SDS011;3038;51.122;6.840;2022-08-11T15:39:28;7.70;;;7.00;;
6019;SDS011;3038;51.122;6.840;2022-08-11T15:41:59;6.83;;;6.33;;
6019;SDS011;3038;51.122;6.840;2022-08-11T15:44:53;7.00;;;6.43;;
6019;SDS011;3038;51.122;6.840;2022-08-11T15:47:43;7.07;;;6.30;;
6019;SDS011;3038;51.122;6.840;2022-08-11T15:50:14;6.60;;;6.10;;
6019;SDS011;3038;51.122;6.840;2022-08-11T15:52:55;7.40;;;6.80;;
6019;SDS011;3038;51.122;6.840;2022-08-11T15:55:26;7.43;;;6.73;;
6019;SDS011;3038;51.122;6.840;2022-08-11T15:57:54;7.10;;;6.50;;
6019;SDS011;3038;51.122;6.840;2022-08-11T16:00:40;6.93;;;6.40;;
6019;SDS011;3038;51.122;6.840;2022-08-11T16:04:05;8.97;;;7.33;;
6019;SDS011;3038;51.122;6.840;2022-08-11T16:09:39;8.00;;;7.40;;
6019;SDS011;3038;51.122;6.840;2022-08-11T16:12:08;7.00;;;6.50;;
6019;SDS011;3038;51.122;6.840;2022-08-11T16:14:38;7.80;;;7.10;;
6019;SDS011;3038;51.122;6.840;2022-08-11T16:17:29;8.07;;;6.73;;
6019;SDS011;3038;51.122;6.840;2022-08-11T16:19:57;7.27;;;6.67;;
6019;SDS011;3038;51.122;6.840;2022-08-11T16:22:25;6.97;;;6.47;;
6019;SDS011;3038;51.122;6.840;2022-08-11T16:25:04;7.60;;;7.10;;
6019;SDS011;3038;51.122;6.840;2022-08-11T16:27:39;7.30;;;6.70;;
6019;SDS011;3038;51.122;6.840;2022-08-11T16:30:07;7.00;;;6.60;;
6019;SDS011;3038;51.122;6.840;2022-08-11T16:32:34;13.23;;;7.20;;
6019;SDS011;3038;51.122;6.840;2022-08-11T16:35:05;6.70;;;6.10;;
6019;SDS011;3038;51.122;6.840;2022-08-11T16:37:53;7.53;;;6.83;;
6019;SDS011;3038;51.122;6.840;2022-08-11T16:40:38;7.30;;;6.60;;
6019;SDS011;3038;51.122;6.840;2022-08-11T16:43:06;7.77;;;7.20;;
6019;SDS011;3038;51.122;6.840;2022-08-11T16:45:52;8.50;;;7.80;;
6019;SDS011;3038;51.122;6.840;2022-08-11T16:48:38;9.07;;;8.40;;
6019;SDS011;3038;51.122;6.840;2022-08-11T16:51:06;7.63;;;7.07;;
6019;SDS011;3038;51.122;6.840;2022-08-11T16:53:34;6.40;;;6.00;;
6019;SDS011;3038;51.122;6.840;2022-08-11T16:56:02;6.73;;;6.13;;
6019;SDS011;3038;51.122;6.840;2022-08-11T16:58:30;6.67;;;6.07;;
6019;SDS011;3038;51.122;6.840;2022-08-11T17:01:20;7.13;;;6.20;;
6019;SDS011;3038;51.122;6.840;2022-08-11T17:03:50;7.03;;;6.33;;
6019;SDS011;3038;51.122;6.840;2022-08-11T17:06:39;7.27;;;6.67;;
6019;SDS011;3038;51.122;6.840;2022-08-11T17:09:27;7.37;;;6.63;;
6019;SDS011;3038;51.122;6.840;2022-08-11T17:12:14;6.90;;;6.30;;
6019;SDS011;3038;51.122;6.840;2022-08-11T17:15:02;6.40;;;5.90;;
6019;SDS011;3038;51.122;6.840;2022-08-11T17:17:53;7.00;;;6.43;;
6019;SDS011;3038;51.122;6.840;2022-08-11T17:20:20;7.57;;;6.43;;
6019;SDS011;3038;51.122;6.840;2022-08-11T17:22:46;6.27;;;5.87;;
6019;SDS011;3038;51.122;6.840;2022-08-11T17:25:32;7.50;;;6.50;;
6019;SDS011;3038;51.122;6.840;2022-08-11T17:27:58;7.10;;;6.50;;
6019;SDS011;3038;51.122;6.840;2022-08-11T17:30:24;6.87;;;6.27;;
6019;SDS011;3038;51.122;6.840;2022-08-11T17:33:11;6.80;;;6.30;;
6019;SDS011;3038;51.122;6.840;2022-08-11T17:35:57;8.30;;;6.60;;
6019;SDS011;3038;51.122;6.840;2022-08-11T17:38:24;6.60;;;6.00;;
6019;SDS011;3038;51.122;6.840;2022-08-11T17:40:54;6.93;;;6.47;;
6019;SDS011;3038;51.122;6.840;2022-08-11T17:43:42;7.73;;;7.07;;
6019;SDS011;3038;51.122;6.840;2022-08-11T17:46:27;6.07;;;5.60;;
6019;SDS011;3038;51.122;6.840;2022-08-11T17:49:12;7.30;;;6.50;;
6019;SDS011;3038;51.122;6.840;2022-08-11T17:51:40;7.30;;;6.80;;
6019;SDS011;3038;51.122;6.840;2022-08-11T17:54:27;7.93;;;7.13;;
6019;SDS011;3038;51.122;6.840;2022-08-11T17:57:13;7.63;;;7.10;;
6019;SDS011;3038;51.122;6.840;2022-08-11T17:59:59;8.13;;;7.40;;
6019;SDS011;3038;51.122;6.840;2022-08-11T18:05:20;8.13;;;7.53;;
6019;SDS011;3038;51.122;6.840;2022-08-11T18:07:49;8.07;;;7.37;;
6019;SDS011;3038;51.122;6.840;2022-08-11T18:10:35;7.33;;;6.73;;
6019;SDS011;3038;51.122;6.840;2022-08-11T18:13:22;8.47;;;6.90;;
6019;SDS011;3038;51.122;6.840;2022-08-11T18:16:08;7.90;;;7.30;;
6019;SDS011;3038;51.122;6.840;2022-08-11T18:18:52;7.67;;;6.97;;
6019;SDS011;3038;51.122;6.840;2022-08-11T18:21:37;7.03;;;6.43;;
6019;SDS011;3038;51.122;6.840;2022-08-11T18:24:24;7.93;;;7.00;;
6019;SDS011;3038;51.122;6.840;2022-08-11T18:27:12;7.57;;;6.97;;
6019;SDS011;3038;51.122;6.840;2022-08-11T18:30:00;8.13;;;7.50;;
6019;SDS011;3038;51.122;6.840;2022-08-11T18:32:47;8.33;;;7.73;;
6019;SDS011;3038;51.122;6.840;2022-08-11T18:35:35;6.80;;;6.30;;
6019;SDS011;3038;51.122;6.840;2022-08-11T18:38:20;7.97;;;7.17;;
6019;SDS011;3038;51.122;6.840;2022-08-11T18:41:06;7.63;;;7.03;;
6019;SDS011;3038;51.122;6.840;2022-08-11T18:43:53;7.60;;;6.90;;
6019;SDS011;3038;51.122;6.840;2022-08-11T18:46:40;7.93;;;7.33;;
6019;SDS011;3038;51.122;6.840;2022-08-11T18:49:28;7.77;;;7.10;;
6019;SDS011;3038;51.122;6.840;2022-08-11T18:52:18;8.20;;;6.67;;
6019;SDS011;3038;51.122;6.840;2022-08-11T18:55:03;7.90;;;7.30;;
6019;SDS011;3038;51.122;6.840;2022-08-11T18:57:52;8.93;;;7.53;;
6019;SDS011;3038;51.122;6.840;2022-08-11T19:00:38;8.10;;;7.60;;
6019;SDS011;3038;51.122;6.840;2022-08-11T19:03:24;7.97;;;7.27;;
6019;SDS011;3038;51.122;6.840;2022-08-11T19:06:11;7.50;;;7.00;;
6019;SDS011;3038;51.122;6.840;2022-08-11T19:08:58;8.63;;;7.80;;
6019;SDS011;3038;51.122;6.840;2022-08-11T19:11:44;10.13;;;8.93;;
6019;SDS011;3038;51.122;6.840;2022-08-11T19:14:29;7.77;;;7.27;;
6019;SDS011;3038;51.122;6.840;2022-08-11T19:17:15;8.10;;;7.43;;
6019;SDS011;3038;51.122;6.840;2022-08-11T19:20:03;7.80;;;7.30;;
6019;SDS011;3038;51.122;6.840;2022-08-11T19:22:50;8.67;;;7.87;;
6019;SDS011;3038;51.122;6.840;2022-08-11T19:25:37;7.60;;;7.00;;
6019;SDS011;3038;51.122;6.840;2022-08-11T19:28:23;8.30;;;7.60;;
6019;SDS011;3038;51.122;6.840;2022-08-11T19:31:08;7.70;;;7.00;;
6019;SDS011;3038;51.122;6.840;2022-08-11T19:33:53;7.90;;;7.30;;
6019;SDS011;3038;51.122;6.840;2022-08-11T19:36:39;8.13;;;7.40;;
6019;SDS011;3038;51.122;6.840;2022-08-11T19:39:25;9.10;;;8.50;;
6019;SDS011;3038;51.122;6.840;2022-08-11T19:42:10;8.27;;;7.67;;
6019;SDS011;3038;51.122;6.840;2022-08-11T19:44:59;9.20;;;8.60;;
6019;SDS011;3038;51.122;6.840;2022-08-11T19:47:45;8.83;;;8.23;;
6019;SDS011;3038;51.122;6.840;2022-08-11T19:50:33;8.40;;;7.70;;
6019;SDS011;3038;51.122;6.840;2022-08-11T19:53:18;8.70;;;8.03;;
6019;SDS011;3038;51.122;6.840;2022-08-11T19:56:04;10.57;;;7.70;;
6019;SDS011;3038;51.122;6.840;2022-08-11T19:58:50;7.87;;;7.30;;
6019;SDS011;3038;51.122;6.840;2022-08-11T20:01:36;7.83;;;7.33;;